createdAt,value
2023-08-01T00:00:25.048Z,8.00
2023-08-01T00:03:48.989Z,10.75
2023-08-01T00:06:51.521Z,8.00
2023-08-01T00:09:54.326Z,9.00
2023-08-01T00:12:56.863Z,6.25
2023-08-01T00:19:05.425Z,10.00
2023-08-01T00:22:08.707Z,9.25
2023-08-01T00:25:11.633Z,9.00
2023-08-01T00:28:14.887Z,10.50
2023-08-01T00:31:17.697Z,10.00
2023-08-01T00:34:20.631Z,10.25
2023-08-01T00:37:23.162Z,10.33
2023-08-01T00:40:34.506Z,8.75
2023-08-01T00:43:37.225Z,10.33
2023-08-01T00:46:40.662Z,9.33
2023-08-01T00:49:45.461Z,8.00
2023-08-01T00:52:49.281Z,12.00
2023-08-01T00:55:54.788Z,8.00
2023-08-01T00:58:57.744Z,8.00
2023-08-01T01:02:01.521Z,9.75
2023-08-01T01:05:04.864Z,9.67
2023-08-01T01:08:08.222Z,10.67
2023-08-01T01:11:11.377Z,10.33
2023-08-01T01:14:14.593Z,10.00
2023-08-01T01:17:19.129Z,10.00
2023-08-01T01:20:25.804Z,9.33
2023-08-01T01:23:29.597Z,9.00
2023-08-01T01:26:33.781Z,9.00
2023-08-01T01:29:38.621Z,10.67
2023-08-01T01:32:41.181Z,8.67
2023-08-01T01:35:43.992Z,9.00
2023-08-01T01:38:46.593Z,8.67
2023-08-01T01:41:49.473Z,10.00
2023-08-01T01:44:52.008Z,8.00
2023-08-01T01:47:55.159Z,9.00
2023-08-01T01:50:57.619Z,8.33
2023-08-01T01:54:00.447Z,9.33
2023-08-01T01:57:03.067Z,12.33
2023-08-01T02:00:06.814Z,9.00
2023-08-01T02:03:15.201Z,8.33
2023-08-01T02:06:17.985Z,9.67
2023-08-01T02:09:20.502Z,8.33
2023-08-01T02:12:23.538Z,8.00
2023-08-01T02:15:26.065Z,6.00
2023-08-01T02:18:28.873Z,9.00
2023-08-01T02:21:31.337Z,7.00
2023-08-01T02:24:34.084Z,8.33
2023-08-01T02:27:36.477Z,8.33
2023-08-01T02:30:39.257Z,8.67
2023-08-01T02:33:41.834Z,8.00
2023-08-01T02:36:44.704Z,8.33
2023-08-01T02:39:48.084Z,8.00
2023-08-01T02:42:50.977Z,9.67
2023-08-01T02:45:53.367Z,10.00
2023-08-01T02:48:56.133Z,8.33
2023-08-01T02:51:58.597Z,8.50
2023-08-01T02:55:01.565Z,7.33
2023-08-01T02:58:03.956Z,7.67
2023-08-01T03:01:11.867Z,8.33
2023-08-01T03:04:14.518Z,7.67
2023-08-01T03:07:17.346Z,10.50
2023-08-01T03:10:30.915Z,7.75
2023-08-01T03:13:39.416Z,10.50
2023-08-01T03:16:42.235Z,10.00
2023-08-01T03:19:45.302Z,8.00
2023-08-01T03:22:47.747Z,9.00
2023-08-01T03:25:50.422Z,9.00
2023-08-01T03:28:52.899Z,10.50
2023-08-01T03:31:55.869Z,7.25
2023-08-01T03:34:58.321Z,9.00
2023-08-01T03:38:01.202Z,8.00
2023-08-01T03:41:05.340Z,8.67
2023-08-01T03:44:08.185Z,9.50
2023-08-01T03:47:10.666Z,8.00
2023-08-01T03:50:15.182Z,7.67
2023-08-01T03:53:17.605Z,7.33
2023-08-01T03:56:20.387Z,8.00
2023-08-01T03:59:22.750Z,8.00
2023-08-01T04:02:25.484Z,8.00
2023-08-01T04:05:31.584Z,7.67
2023-08-01T04:08:34.349Z,7.00
2023-08-01T04:11:36.886Z,6.33
2023-08-01T04:14:39.648Z,9.00
2023-08-01T04:17:42.156Z,8.33
2023-08-01T04:20:45.295Z,8.00
2023-08-01T04:23:47.698Z,7.67
2023-08-01T04:26:50.470Z,7.33
2023-08-01T04:29:53.046Z,9.00
2023-08-01T04:32:55.948Z,7.00
2023-08-01T04:35:58.411Z,7.00
2023-08-01T04:39:01.059Z,8.00
2023-08-01T04:42:03.781Z,6.00
2023-08-01T04:45:08.330Z,8.00
2023-08-01T04:48:12.172Z,6.67
2023-08-01T04:51:15.046Z,6.00
2023-08-01T04:54:17.735Z,8.00
2023-08-01T04:57:20.516Z,6.33
2023-08-01T05:00:22.848Z,5.00
2023-08-01T05:03:25.971Z,6.67
2023-08-01T05:06:29.407Z,6.33
2023-08-01T05:09:32.235Z,8.00
2023-08-01T05:12:34.706Z,7.00
2023-08-01T05:15:37.484Z,6.00
2023-08-01T05:18:39.958Z,5.33
2023-08-01T05:21:42.677Z,8.33
2023-08-01T05:24:45.590Z,6.67
2023-08-01T05:27:48.716Z,6.33
2023-08-01T05:30:51.193Z,5.00
2023-08-01T05:33:53.977Z,7.33
2023-08-01T05:36:56.597Z,7.00
2023-08-01T05:39:59.401Z,7.00
2023-08-01T05:43:02.749Z,5.33
2023-08-01T05:46:05.729Z,7.33
2023-08-01T05:49:09.503Z,7.67
2023-08-01T05:52:12.473Z,6.33
2023-08-01T05:55:15.001Z,6.33
2023-08-01T05:58:17.936Z,6.33
2023-08-01T06:01:21.059Z,7.67
2023-08-01T06:04:23.966Z,6.00
2023-08-01T06:07:26.655Z,6.00
2023-08-01T06:10:29.514Z,8.00
2023-08-01T06:13:31.949Z,6.00
2023-08-01T06:16:34.822Z,6.00
2023-08-01T06:19:37.348Z,5.00
2023-08-01T06:22:40.260Z,6.00
2023-08-01T06:25:43.127Z,7.00
2023-08-01T06:28:46.012Z,9.00
2023-08-01T06:31:48.469Z,7.00
2023-08-01T06:34:51.344Z,6.33
2023-08-01T06:37:53.864Z,7.33
2023-08-01T06:40:56.704Z,9.00
2023-08-01T06:43:59.236Z,6.67
2023-08-01T06:47:02.128Z,6.67
2023-08-01T06:50:06.190Z,6.67
2023-08-01T06:53:09.724Z,7.00
2023-08-01T06:56:12.217Z,7.33
2023-08-01T06:59:16.169Z,6.33
2023-08-01T07:02:18.622Z,7.33
2023-08-01T07:05:21.789Z,8.00
2023-08-01T07:08:24.906Z,7.00
2023-08-01T07:11:27.838Z,7.00
2023-08-01T07:14:30.319Z,7.33
2023-08-01T07:17:33.031Z,6.67
2023-08-01T07:20:35.678Z,5.00
2023-08-01T07:23:38.437Z,7.00
2023-08-01T07:26:41.089Z,7.33
2023-08-01T07:29:44.043Z,6.67
2023-08-01T07:32:46.735Z,6.00
2023-08-01T07:35:49.534Z,6.67
2023-08-01T07:38:51.980Z,7.00
2023-08-01T07:41:54.864Z,7.00
2023-08-01T07:44:57.471Z,6.00
2023-08-01T07:48:00.339Z,8.00
2023-08-01T07:51:02.855Z,8.00
2023-08-01T07:54:05.654Z,8.33
2023-08-01T07:57:08.227Z,6.67
2023-08-01T08:00:12.684Z,8.00
2023-08-01T08:03:18.201Z,8.67
2023-08-01T08:06:22.584Z,5.67
2023-08-01T08:09:25.167Z,6.33
2023-08-01T08:12:27.992Z,7.00
2023-08-01T08:15:34.922Z,8.33
2023-08-01T08:18:37.700Z,8.67
2023-08-01T08:21:40.252Z,7.67
2023-08-01T08:24:43.067Z,4.67
2023-08-01T08:27:45.539Z,5.67
2023-08-01T08:30:48.320Z,7.67
2023-08-01T08:33:50.917Z,6.33
2023-08-01T08:36:53.831Z,8.00
2023-08-01T08:39:56.361Z,7.00
2023-08-01T08:43:03.087Z,7.67
2023-08-01T08:46:06.941Z,8.00
2023-08-01T08:49:10.899Z,7.00
2023-08-01T08:52:13.403Z,8.00
2023-08-01T08:55:16.762Z,6.33
2023-08-01T08:58:19.899Z,9.00
2023-08-01T09:01:22.742Z,8.67
2023-08-01T09:04:25.373Z,6.67
2023-08-01T09:07:31.873Z,9.33
2023-08-01T09:10:34.419Z,8.00
2023-08-01T09:13:37.381Z,7.00
2023-08-01T09:16:44.747Z,8.33
2023-08-01T09:19:47.956Z,9.33
2023-08-01T09:22:50.513Z,8.67
2023-08-01T09:25:53.659Z,9.00
2023-08-01T09:28:59.338Z,10.00
2023-08-01T09:32:13.245Z,7.33
2023-08-01T09:35:15.757Z,8.33
2023-08-01T09:38:19.099Z,10.67
2023-08-01T09:41:21.862Z,10.00
2023-08-01T09:44:24.894Z,8.67
2023-08-01T09:47:38.081Z,8.33
2023-08-01T09:50:41.047Z,10.00
2023-08-01T09:53:57.531Z,8.00
2023-08-01T09:57:01.654Z,8.33
2023-08-01T10:00:05.004Z,9.00
2023-08-01T10:03:15.374Z,12.00
2023-08-01T10:06:25.788Z,9.33
2023-08-01T10:09:29.378Z,7.67
2023-08-01T10:12:32.645Z,7.67
2023-08-01T10:15:36.141Z,9.33
2023-08-01T10:18:39.754Z,8.67
2023-08-01T10:21:44.080Z,9.33
2023-08-01T10:24:47.510Z,7.33
2023-08-01T10:28:03.932Z,9.33
2023-08-01T10:31:10.779Z,8.00
2023-08-01T10:34:15.975Z,9.00
2023-08-01T10:37:18.753Z,10.00
2023-08-01T10:40:21.537Z,11.00
2023-08-01T10:43:25.652Z,8.67
2023-08-01T10:46:28.851Z,9.33
2023-08-01T10:49:43.862Z,10.33
2023-08-01T10:52:47.829Z,10.00
2023-08-01T10:55:50.506Z,9.67
2023-08-01T10:58:53.696Z,9.00
2023-08-01T11:02:00.713Z,10.67
2023-08-01T11:05:08.615Z,10.33
2023-08-01T11:08:11.223Z,10.00
2023-08-01T11:11:16.242Z,12.33
2023-08-01T11:14:24.393Z,9.33
2023-08-01T11:17:27.243Z,9.67
2023-08-01T11:20:30.252Z,10.67
2023-08-01T11:23:33.197Z,12.00
2023-08-01T11:26:35.709Z,10.00
2023-08-01T11:29:41.703Z,12.00
2023-08-01T11:32:44.295Z,11.67
2023-08-01T11:35:47.758Z,11.33
2023-08-01T11:38:50.331Z,11.33
2023-08-01T11:41:53.498Z,11.00
2023-08-01T11:45:12.079Z,11.33
2023-08-01T11:48:15.466Z,11.00
2023-08-01T11:51:18.350Z,11.67
2023-08-01T11:54:22.850Z,10.67
2023-08-01T11:57:25.856Z,9.67
2023-08-01T12:00:30.261Z,7.67
2023-08-01T12:03:34.814Z,9.33
2023-08-01T12:06:40.558Z,10.00
2023-08-01T12:09:43.291Z,10.00
2023-08-01T12:12:48.262Z,9.00
2023-08-01T12:15:51.591Z,9.67
2023-08-01T12:19:00.257Z,9.00
2023-08-01T12:22:03.740Z,8.67
2023-08-01T12:25:07.168Z,8.67
2023-08-01T12:28:09.665Z,10.67
2023-08-01T12:31:13.011Z,8.00
2023-08-01T12:34:15.536Z,11.00
2023-08-01T12:37:18.353Z,9.67
2023-08-01T12:40:21.210Z,8.00
2023-08-01T12:43:24.017Z,10.33
2023-08-01T12:46:26.867Z,10.00
2023-08-01T12:49:29.720Z,10.00
2023-08-01T12:52:32.422Z,6.33
2023-08-01T12:55:35.721Z,11.00
2023-08-01T12:58:38.283Z,9.00
2023-08-01T13:01:41.101Z,8.33
2023-08-01T13:04:43.789Z,8.33
2023-08-01T13:07:46.633Z,7.67
2023-08-01T13:10:51.070Z,7.67
2023-08-01T13:13:53.876Z,6.00
2023-08-01T13:16:56.367Z,8.33
2023-08-01T13:19:59.389Z,9.67
2023-08-01T13:23:03.854Z,8.00
2023-08-01T13:26:07.205Z,6.67
2023-08-01T13:29:09.726Z,8.00
2023-08-01T13:32:12.651Z,8.33
2023-08-01T13:35:15.815Z,8.33
2023-08-01T13:38:18.927Z,10.00
2023-08-01T13:41:21.447Z,8.33
2023-08-01T13:44:24.171Z,6.33
2023-08-01T13:47:26.901Z,9.00
2023-08-01T13:50:30.384Z,8.00
2023-08-01T13:53:32.872Z,8.67
2023-08-01T13:56:38.264Z,7.67
2023-08-01T13:59:41.879Z,9.33
2023-08-01T14:02:45.016Z,9.67
2023-08-01T14:05:47.870Z,8.33
2023-08-01T14:08:50.733Z,8.67
2023-08-01T14:11:53.295Z,10.67
2023-08-01T14:14:56.266Z,8.67
2023-08-01T14:17:58.996Z,10.00
2023-08-01T14:21:01.936Z,9.00
2023-08-01T14:24:04.910Z,12.67
2023-08-01T14:27:07.877Z,8.33
2023-08-01T14:30:11.022Z,13.67
2023-08-01T14:33:15.496Z,11.33
2023-08-01T14:36:18.021Z,13.33
2023-08-01T14:39:23.010Z,10.33
2023-08-01T14:42:25.702Z,13.33
2023-08-01T14:45:28.655Z,10.67
2023-08-01T14:48:31.160Z,12.33
2023-08-01T14:51:34.027Z,11.00
2023-08-01T14:54:40.861Z,11.00
2023-08-01T14:57:56.370Z,11.67
2023-08-01T15:00:58.890Z,12.67
2023-08-01T15:04:01.749Z,13.67
2023-08-01T15:07:05.803Z,12.67
2023-08-01T15:10:10.626Z,12.00
2023-08-01T15:13:13.290Z,12.33
2023-08-01T15:16:18.411Z,11.67
2023-08-01T15:19:21.982Z,9.00
2023-08-01T15:22:25.002Z,12.00
2023-08-01T15:25:27.495Z,13.00
2023-08-01T15:28:30.458Z,12.00
2023-08-01T15:31:33.182Z,10.33
2023-08-01T15:34:36.178Z,10.67
2023-08-01T15:37:40.119Z,11.00
2023-08-01T15:40:43.078Z,12.00
2023-08-01T15:43:45.493Z,8.67
2023-08-01T15:46:48.870Z,11.00
2023-08-01T15:49:51.437Z,12.33
2023-08-01T15:52:54.348Z,9.33
2023-08-01T15:56:05.865Z,11.67
2023-08-01T15:59:10.210Z,10.00
2023-08-01T16:02:13.032Z,10.33
2023-08-01T16:05:16.454Z,9.00
2023-08-01T16:08:19.727Z,12.00
2023-08-01T16:11:23.063Z,12.00
2023-08-01T16:14:40.186Z,9.33
2023-08-01T16:17:45.012Z,12.00
2023-08-01T16:20:48.648Z,9.00
2023-08-01T16:23:51.972Z,11.33
2023-08-01T16:26:54.765Z,12.33
2023-08-01T16:29:57.872Z,11.33
2023-08-01T16:33:01.026Z,10.00
2023-08-01T16:36:04.262Z,10.67
2023-08-01T16:39:07.240Z,11.33
2023-08-01T16:42:10.563Z,10.00
2023-08-01T16:45:13.813Z,12.00
2023-08-01T16:48:16.974Z,9.00
2023-08-01T16:51:19.590Z,9.33
2023-08-01T16:54:22.649Z,9.00
2023-08-01T16:57:25.872Z,8.33
2023-08-01T17:00:29.375Z,10.33
2023-08-01T17:03:33.055Z,8.67
2023-08-01T17:06:36.683Z,9.67
2023-08-01T17:09:39.852Z,10.67
2023-08-01T17:12:42.940Z,9.33
2023-08-01T17:15:46.169Z,10.67
2023-08-01T17:18:49.353Z,8.33
2023-08-01T17:21:51.969Z,8.33
2023-08-01T17:24:55.354Z,10.67
2023-08-01T17:27:58.705Z,8.67
2023-08-01T17:31:16.567Z,8.00
2023-08-01T17:34:20.492Z,9.00
2023-08-01T17:37:24.142Z,10.67
2023-08-01T17:40:27.833Z,11.67
2023-08-01T17:43:31.623Z,10.67
2023-08-01T17:46:34.704Z,10.00
2023-08-01T17:49:38.432Z,9.00
2023-08-01T17:52:41.958Z,10.67
2023-08-01T17:55:45.777Z,8.67
2023-08-01T17:58:49.870Z,9.67
2023-08-01T18:01:54.904Z,10.33
2023-08-01T18:04:58.571Z,9.00
2023-08-01T18:08:02.715Z,10.33
2023-08-01T18:11:14.711Z,11.00
2023-08-01T18:14:18.384Z,10.00
2023-08-01T18:17:22.004Z,11.00
2023-08-01T18:20:25.835Z,9.33
2023-08-01T18:23:28.950Z,9.00
2023-08-01T18:26:32.042Z,9.33
2023-08-01T18:29:35.103Z,9.00
2023-08-01T18:32:38.734Z,10.00
2023-08-01T18:35:45.482Z,8.00
2023-08-01T18:38:50.525Z,10.33
2023-08-01T18:41:55.474Z,8.67
2023-08-01T18:44:59.763Z,5.00
2023-08-01T18:48:02.734Z,7.67
2023-08-01T18:51:16.866Z,7.00
2023-08-01T18:54:23.047Z,7.00
2023-08-01T18:57:27.054Z,6.00
2023-08-01T19:00:34.054Z,7.00
2023-08-01T19:03:37.972Z,4.00
2023-08-01T19:06:41.345Z,5.00
2023-08-01T19:09:45.812Z,6.00
2023-08-01T19:12:48.733Z,6.00
2023-08-01T19:15:52.509Z,5.00
2023-08-01T19:18:56.765Z,5.00
2023-08-01T19:22:00.025Z,8.00
2023-08-01T19:25:04.203Z,7.00
2023-08-01T19:28:08.706Z,8.33
2023-08-01T19:31:12.546Z,6.00
2023-08-01T19:34:15.954Z,6.33
2023-08-01T19:37:20.118Z,7.00
2023-08-01T19:40:24.105Z,9.67
2023-08-01T19:43:28.994Z,9.00
2023-08-01T19:46:35.132Z,7.00
2023-08-01T19:49:38.322Z,9.33
2023-08-01T19:52:41.928Z,8.00
2023-08-01T19:55:45.142Z,8.33
2023-08-01T19:58:48.792Z,7.33
2023-08-01T20:01:51.985Z,11.00
2023-08-01T20:04:55.120Z,9.00
2023-08-01T20:07:58.454Z,9.33
2023-08-01T20:11:02.596Z,9.33
2023-08-01T20:14:07.116Z,10.00
2023-08-01T20:17:11.018Z,8.00
2023-08-01T20:20:13.826Z,10.00
2023-08-01T20:23:17.378Z,10.33
2023-08-01T20:26:20.212Z,10.00
2023-08-01T20:29:24.200Z,9.33
2023-08-01T20:32:27.588Z,9.67
2023-08-01T20:35:31.083Z,10.00
2023-08-01T20:38:34.076Z,11.33
2023-08-01T20:41:37.372Z,11.00
2023-08-01T20:44:40.227Z,10.00
2023-08-01T20:47:43.865Z,9.67
2023-08-01T20:50:47.387Z,11.00
2023-08-01T20:53:50.942Z,9.00
2023-08-01T20:56:53.861Z,10.00
2023-08-01T20:59:56.934Z,9.00
2023-08-01T21:02:59.609Z,8.00
2023-08-01T21:06:02.588Z,6.67
2023-08-01T21:09:06.054Z,5.33
2023-08-01T21:12:09.324Z,7.33
2023-08-01T21:15:11.865Z,7.00
2023-08-01T21:18:15.176Z,7.00
2023-08-01T21:21:17.718Z,6.00
2023-08-01T21:24:20.643Z,7.67
2023-08-01T21:27:23.241Z,5.00
2023-08-01T21:30:26.154Z,5.00
2023-08-01T21:33:28.763Z,5.33
2023-08-01T21:36:32.030Z,6.00
2023-08-01T21:39:39.365Z,5.00
2023-08-01T21:42:42.514Z,6.00
2023-08-01T21:45:45.348Z,5.00
2023-08-01T21:48:48.328Z,6.00
2023-08-01T21:51:50.879Z,6.00
2023-08-01T21:54:53.879Z,4.00
2023-08-01T21:57:56.422Z,5.00
2023-08-01T22:00:59.628Z,4.00
2023-08-01T22:04:02.138Z,5.00
2023-08-01T22:07:05.215Z,5.00
2023-08-01T22:10:11.660Z,6.00
2023-08-01T22:13:14.650Z,6.67
2023-08-01T22:16:17.448Z,5.00
2023-08-01T22:19:20.292Z,5.67
2023-08-01T22:22:26.272Z,6.00
2023-08-01T22:25:29.172Z,5.00
2023-08-01T22:28:32.779Z,6.00
2023-08-01T22:31:35.696Z,6.00
2023-08-01T22:34:38.332Z,4.67
2023-08-01T22:37:41.168Z,5.00
2023-08-01T22:40:43.704Z,5.00
2023-08-01T22:43:49.870Z,5.33
2023-08-01T22:46:52.391Z,6.33
2023-08-01T22:50:05.511Z,6.00
2023-08-01T22:53:09.954Z,6.00
2023-08-01T22:56:12.872Z,8.00
2023-08-01T22:59:15.358Z,8.00
2023-08-01T23:02:18.388Z,8.00
2023-08-01T23:05:21.766Z,8.33
2023-08-01T23:08:24.833Z,9.00
2023-08-01T23:11:27.275Z,8.75
2023-08-01T23:14:30.163Z,8.00
2023-08-01T23:17:34.024Z,7.50
2023-08-01T23:20:36.836Z,9.50
2023-08-01T23:23:39.389Z,8.00
2023-08-01T23:26:42.424Z,10.50
2023-08-01T23:29:45.373Z,9.00
2023-08-01T23:32:48.268Z,10.50
2023-08-01T23:35:51.264Z,11.00
2023-08-01T23:38:54.071Z,12.00
2023-08-01T23:41:56.574Z,11.00
2023-08-01T23:44:59.790Z,12.75
2023-08-01T23:48:02.491Z,13.25
2023-08-01T23:51:05.418Z,13.00
2023-08-01T23:54:08.090Z,10.00
2023-08-01T23:57:10.915Z,11.25
